Time;durP1;ratioP1;P1;durP2;ratioP2;P2;SDS_P1;SDS_P2;PMS_P1;PMS_P2;Temp;Humidity;BMP_temperature;BMP_pressure;BME280_temperature;BME280_humidity;BME280_pressure;Samples;Min_cycle;Max_cycle;Signal;HPM_P1;HPM_P2
2023/06/17 00:00:13;;;;;;;5.63;4.67;;;12.20;60.00;;;;;;2086241;28;20184;-64
2023/06/17 00:01:15;;;;;;;8.23;5.75;;;12.20;60.00;;;;;;2095681;28;20190;-63
2023/06/17 00:02:16;;;;;;;5.22;4.32;;;12.20;60.00;;;;;;2095035;28;20218;-63
2023/06/17 00:03:16;;;;;;;5.00;4.47;;;12.20;60.00;;;;;;2097497;28;20180;-63
2023/06/17 00:04:17;;;;;;;6.30;4.30;;;12.20;60.30;;;;;;2103316;28;20415;-63
2023/06/17 00:05:18;;;;;;;5.77;4.17;;;12.20;60.10;;;;;;2100247;28;20489;-64
2023/06/17 00:06:19;;;;;;;7.05;4.78;;;12.20;59.70;;;;;;2095075;28;20319;-64
2023/06/17 00:07:19;;;;;;;8.57;4.97;;;12.10;59.90;;;;;;2095734;28;20230;-64
2023/06/17 00:08:20;;;;;;;7.00;4.63;;;12.10;60.60;;;;;;2095551;28;20269;-63
2023/06/17 00:09:21;;;;;;;5.47;4.47;;;12.10;60.40;;;;;;2095914;28;20231;-64
2023/06/17 00:10:23;;;;;;;5.87;4.77;;;12.00;60.30;;;;;;2096360;28;20227;-64
2023/06/17 00:11:23;;;;;;;7.93;4.80;;;12.10;60.20;;;;;;2098738;28;20677;-64
2023/06/17 00:12:24;;;;;;;6.73;4.90;;;12.00;60.10;;;;;;2094326;28;20266;-63
2023/06/17 00:13:25;;;;;;;6.23;4.63;;;12.10;60.40;;;;;;2086681;28;20724;-63
2023/06/17 00:14:26;;;;;;;5.50;4.90;;;12.10;60.20;;;;;;2095841;28;20226;-63
2023/06/17 00:15:28;;;;;;;5.55;4.50;;;12.10;60.00;;;;;;2099620;28;20282;-64
2023/06/17 00:16:32;;;;;;;5.88;4.43;;;12.00;60.30;;;;;;2096150;28;20219;-64
2023/06/17 00:17:33;;;;;;;6.72;5.10;;;12.00;60.90;;;;;;2098211;28;20602;-63
2023/06/17 00:18:34;;;;;;;6.25;5.03;;;12.00;61.00;;;;;;2097661;28;20313;-64
2023/06/17 00:19:37;;;;;;;6.67;4.63;;;12.00;62.10;;;;;;2105260;28;20235;-64
2023/06/17 00:20:38;;;;;;;6.53;4.57;;;12.00;61.60;;;;;;2105820;28;20712;-64
2023/06/17 00:21:40;;;;;;;4.90;4.40;;;12.00;60.50;;;;;;2097514;28;20251;-63
2023/06/17 00:22:43;;;;;;;5.20;4.43;;;12.00;60.60;;;;;;2097351;28;20325;-64
2023/06/17 00:23:44;;;;;;;5.30;4.18;;;12.00;60.50;;;;;;2098055;28;20302;-64
2023/06/17 00:24:44;;;;;;;5.33;4.27;;;12.10;60.10;;;;;;2105675;28;20633;-64
2023/06/17 00:25:45;;;;;;;7.17;4.40;;;12.10;60.40;;;;;;2103773;28;20241;-64
2023/06/17 00:26:48;;;;;;;7.33;4.87;;;12.00;60.70;;;;;;2103094;28;20226;-65
2023/06/17 00:27:49;;;;;;;6.15;4.32;;;12.00;60.70;;;;;;2097840;28;20226;-64
2023/06/17 00:28:50;;;;;;;6.50;4.50;;;12.00;60.70;;;;;;2097200;28;20321;-64
2023/06/17 00:29:50;;;;;;;5.80;4.70;;;12.00;61.50;;;;;;2105584;28;20280;-63
2023/06/17 00:30:51;;;;;;;4.90;4.20;;;12.00;61.00;;;;;;2105570;28;20653;-65
2023/06/17 00:31:52;;;;;;;5.60;4.77;;;12.00;61.00;;;;;;2102699;28;20268;-64
2023/06/17 00:32:53;;;;;;;4.90;4.37;;;12.10;61.00;;;;;;2086175;28;20314;-64
2023/06/17 00:33:54;;;;;;;5.13;4.38;;;12.00;61.00;;;;;;2103996;28;20760;-65
2023/06/17 00:34:55;;;;;;;5.03;4.37;;;12.00;61.30;;;;;;2112340;28;20237;-63
2023/06/17 00:35:55;;;;;;;6.97;4.43;;;11.90;61.50;;;;;;2093843;28;20253;-65
2023/06/17 00:36:57;;;;;;;4.40;3.97;;;12.00;61.50;;;;;;2096563;28;20298;-65
2023/06/17 00:37:58;;;;;;;5.18;4.47;;;11.90;62.00;;;;;;2104621;28;20225;-66
2023/06/17 00:38:59;;;;;;;5.37;4.77;;;11.90;62.40;;;;;;2100637;28;20186;-65
2023/06/17 00:40:00;;;;;;;5.07;4.27;;;11.80;62.40;;;;;;2103651;28;20205;-65
2023/06/17 00:41:01;;;;;;;6.00;4.45;;;11.70;62.30;;;;;;2105663;28;20740;-64
2023/06/17 00:42:02;;;;;;;5.20;4.20;;;11.70;62.50;;;;;;2097280;28;20216;-64
2023/06/17 00:43:02;;;;;;;4.97;4.17;;;11.70;62.40;;;;;;2088268;28;20193;-65
2023/06/17 00:44:03;;;;;;;5.07;4.57;;;11.70;62.20;;;;;;2077506;28;20200;-65
2023/06/17 00:45:05;;;;;;;6.40;4.73;;;11.80;62.40;;;;;;2097138;28;20629;-65
2023/06/17 00:46:06;;;;;;;6.85;4.57;;;11.80;62.30;;;;;;2093212;28;20360;-65
2023/06/17 00:47:10;;;;;;;6.47;4.72;;;11.80;62.30;;;;;;2094573;28;20187;-65
2023/06/17 00:48:11;;;;;;;5.60;4.40;;;11.80;62.70;;;;;;2096816;28;20214;-65
2023/06/17 00:49:12;;;;;;;4.85;4.32;;;11.70;62.50;;;;;;2097101;28;20753;-65
2023/06/17 00:50:14;;;;;;;5.47;4.67;;;11.80;62.80;;;;;;2097252;28;20192;-67
2023/06/17 00:51:16;;;;;;;5.78;4.53;;;11.80;63.00;;;;;;2097028;28;20202;-65
2023/06/17 00:52:17;;;;;;;5.70;4.32;;;11.70;62.80;;;;;;2097385;28;20248;-65
2023/06/17 00:53:18;;;;;;;5.95;4.20;;;11.70;63.10;;;;;;2081032;28;20196;-65
2023/06/17 00:54:18;;;;;;;5.97;4.47;;;11.70;63.20;;;;;;2088329;28;20256;-64
2023/06/17 00:55:21;;;;;;;6.13;4.57;;;11.70;63.40;;;;;;2088389;28;20724;-64
2023/06/17 00:56:25;;;;;;;8.10;4.78;;;11.70;63.30;;;;;;2097332;28;20261;-64
2023/06/17 00:57:28;;;;;;;5.97;4.57;;;11.70;63.40;;;;;;2100323;28;20286;-64
2023/06/17 00:58:31;;;;;;;6.05;4.65;;;11.60;63.60;;;;;;2091817;28;20230;-65
2023/06/17 00:59:33;;;;;;;5.07;4.35;;;11.50;65.10;;;;;;2097353;28;20233;-65
2023/06/17 01:00:34;;;;;;;7.10;4.70;;;11.50;64.10;;;;;;2096298;28;20704;-64
2023/06/17 01:01:37;;;;;;;5.73;5.13;;;11.50;64.30;;;;;;2097296;28;20227;-64
2023/06/17 01:02:43;;;;;;;6.72;4.88;;;11.60;64.30;;;;;;2097253;28;20235;-64
2023/06/17 01:03:45;;;;;;;5.28;4.63;;;11.50;64.30;;;;;;2097794;28;20292;-65
2023/06/17 01:04:46;;;;;;;5.75;4.50;;;11.50;64.40;;;;;;2089181;28;20654;-65
2023/06/17 01:05:49;;;;;;;5.63;4.50;;;11.50;64.50;;;;;;2096929;28;20238;-64
2023/06/17 01:07:37;;;;;;;6.32;5.03;;;11.50;64.50;;;;;;2104015;28;20614;-65
2023/06/17 01:08:57;;;;;;;5.85;4.72;;;11.50;65.70;;;;;;2073554;28;20319;-64
2023/06/17 01:10:32;;;;;;;5.70;4.68;;;11.40;64.30;;;;;;2103644;28;20228;-67
2023/06/17 01:11:34;;;;;;;6.28;4.60;;;11.40;65.00;;;;;;2107844;28;20730;-64
2023/06/17 01:12:37;;;;;;;6.30;4.97;;;11.40;65.40;;;;;;2106573;28;20233;-64
2023/06/17 01:13:45;;;;;;;6.88;5.10;;;11.30;65.40;;;;;;2105771;28;20225;-65
2023/06/17 01:14:49;;;;;;;5.22;4.25;;;11.30;65.50;;;;;;2104342;28;20226;-64
2023/06/17 01:15:51;;;;;;;5.35;4.75;;;11.30;65.50;;;;;;2097070;28;20218;-64
2023/06/17 01:16:54;;;;;;;7.55;4.35;;;11.30;65.80;;;;;;2095307;28;20219;-65
2023/06/17 01:17:55;;;;;;;6.57;4.95;;;11.30;66.10;;;;;;2097333;28;20218;-68
2023/06/17 01:18:57;;;;;;;5.15;4.20;;;11.30;66.10;;;;;;2089666;28;20222;-64
2023/06/17 01:19:59;;;;;;;7.13;4.78;;;11.30;66.00;;;;;;2096178;28;20252;-67
2023/06/17 01:21:00;;;;;;;6.13;4.25;;;11.30;65.80;;;;;;2088834;28;20183;-65
2023/06/17 01:22:02;;;;;;;5.32;4.10;;;11.30;65.60;;;;;;2096873;28;20621;-65
2023/06/17 01:23:05;;;;;;;5.60;4.55;;;11.30;65.60;;;;;;2105234;28;20198;-65
2023/06/17 01:24:07;;;;;;;8.18;4.90;;;11.30;66.00;;;;;;2104005;28;20197;-64
2023/06/17 01:25:09;;;;;;;5.18;4.55;;;11.30;66.00;;;;;;2105560;28;20182;-64
2023/06/17 01:26:10;;;;;;;5.18;4.68;;;11.30;66.00;;;;;;2097281;28;20217;-64
2023/06/17 01:27:11;;;;;;;4.95;4.45;;;11.30;66.20;;;;;;2097024;28;20190;-65
2023/06/17 01:28:19;;;;;;;5.70;4.65;;;11.20;66.00;;;;;;2102229;28;20261;-64
2023/06/17 01:29:20;;;;;;;6.68;4.65;;;11.30;66.30;;;;;;2102197;28;20225;-65
2023/06/17 01:30:21;;;;;;;6.63;5.00;;;11.20;66.40;;;;;;2101979;28;20308;-63
2023/06/17 01:31:25;;;;;;;7.17;5.23;;;11.20;66.40;;;;;;2096807;28;20302;-65
2023/06/17 01:32:26;;;;;;;5.07;4.55;;;11.10;66.20;;;;;;2105794;28;20623;-65
2023/06/17 01:33:28;;;;;;;6.20;4.70;;;11.20;66.60;;;;;;2097149;28;20238;-64
2023/06/17 01:34:52;;;;;;;6.07;4.70;;;11.20;66.90;;;;;;2096936;28;20265;-64
2023/06/17 01:36:06;;;;;;;7.93;4.47;;;11.10;67.10;;;;;;2101999;28;20220;-65
2023/06/17 01:37:13;;;;;;;4.90;4.40;;;11.00;67.30;;;;;;2101175;28;20867;-64
2023/06/17 01:38:21;;;;;;;8.05;4.72;;;11.00;67.40;;;;;;2102372;28;20226;-63
2023/06/17 01:39:26;;;;;;;4.93;4.40;;;11.10;67.40;;;;;;2095609;28;20226;-64
2023/06/17 01:40:30;;;;;;;5.10;4.20;;;11.10;67.70;;;;;;2093158;28;20232;-65
2023/06/17 01:41:39;;;;;;;6.38;5.10;;;11.10;67.90;;;;;;2101086;28;20276;-64
2023/06/17 01:42:45;;;;;;;6.22;5.00;;;11.00;68.50;;;;;;2094767;28;20211;-64
2023/06/17 01:43:47;;;;;;;6.90;4.50;;;11.00;68.40;;;;;;2096737;28;20301;-63
2023/06/17 01:44:48;;;;;;;6.68;5.03;;;11.00;68.40;;;;;;2087878;28;20972;-62
2023/06/17 01:45:49;;;;;;;5.28;4.32;;;10.90;69.30;;;;;;2101974;28;20780;-64
2023/06/17 01:46:50;;;;;;;6.85;5.10;;;10.90;68.30;;;;;;2104250;28;20265;-65
2023/06/17 01:47:51;;;;;;;5.93;4.70;;;10.90;68.30;;;;;;2104364;28;20225;-67
2023/06/17 01:48:55;;;;;;;5.00;4.13;;;10.90;68.30;;;;;;2104432;28;20240;-65
2023/06/17 01:50:01;;;;;;;6.30;4.93;;;10.90;68.10;;;;;;2096229;28;20226;-65
2023/06/17 01:51:03;;;;;;;5.55;4.53;;;10.90;68.00;;;;;;2095578;28;20699;-64
2023/06/17 01:52:06;;;;;;;5.97;4.65;;;10.90;67.90;;;;;;2104636;28;20207;-65
2023/06/17 01:53:07;;;;;;;6.20;4.55;;;10.90;68.00;;;;;;2101170;28;20178;-65
2023/06/17 01:54:08;;;;;;;5.43;4.60;;;10.80;68.00;;;;;;2096434;28;20212;-63
2023/06/17 01:55:09;;;;;;;7.27;4.57;;;10.90;68.20;;;;;;2104810;28;20546;-64
2023/06/17 01:56:10;;;;;;;6.50;4.85;;;10.90;68.30;;;;;;2105013;28;20196;-64
2023/06/17 01:57:11;;;;;;;5.37;4.70;;;10.90;68.30;;;;;;2104381;28;20183;-65
2023/06/17 01:58:11;;;;;;;7.80;4.57;;;10.80;68.30;;;;;;2104172;28;20565;-64
2023/06/17 01:59:12;;;;;;;5.17;4.63;;;10.80;68.20;;;;;;2104740;28;20541;-64
2023/06/17 02:00:13;;;;;;;5.27;4.50;;;10.90;68.50;;;;;;2104608;28;20293;-67
2023/06/17 02:01:14;;;;;;;5.63;4.68;;;10.80;68.40;;;;;;2102467;28;20561;-64
2023/06/17 02:02:15;;;;;;;6.27;4.67;;;10.80;68.70;;;;;;2104591;28;20261;-65
2023/06/17 02:03:18;;;;;;;6.63;4.80;;;10.80;70.00;;;;;;2101675;28;20187;-64
2023/06/17 02:04:19;;;;;;;6.00;4.63;;;10.80;68.60;;;;;;2112605;28;20235;-65
2023/06/17 02:05:19;;;;;;;5.17;4.53;;;10.80;68.60;;;;;;2109553;28;20925;-65
2023/06/17 02:06:20;;;;;;;6.53;4.90;;;10.80;68.60;;;;;;2101845;28;20232;-65
2023/06/17 02:07:25;;;;;;;5.67;4.07;;;10.70;68.50;;;;;;2100569;28;20233;-65
2023/06/17 02:08:26;;;;;;;5.43;4.28;;;10.80;69.20;;;;;;2104869;28;20291;-65
2023/06/17 02:09:27;;;;;;;4.63;4.20;;;10.80;69.30;;;;;;2105748;28;20237;-67
2023/06/17 02:10:28;;;;;;;4.97;4.40;;;10.70;68.90;;;;;;2101003;28;20711;-62
2023/06/17 02:11:29;;;;;;;4.85;4.25;;;10.70;69.20;;;;;;2096218;28;20246;-66
2023/06/17 02:12:30;;;;;;;5.83;4.57;;;10.70;69.10;;;;;;2088320;28;20213;-65
2023/06/17 02:13:31;;;;;;;4.80;4.30;;;10.70;68.90;;;;;;2096628;28;20267;-65
2023/06/17 02:14:33;;;;;;;5.70;4.50;;;10.70;69.10;;;;;;2104862;28;20222;-64
2023/06/17 02:15:33;;;;;;;7.85;4.53;;;10.70;69.10;;;;;;2104909;28;20237;-65
2023/06/17 02:16:42;;;;;;;4.83;4.20;;;10.70;68.90;;;;;;2105270;28;20229;-63
2023/06/17 02:17:43;;;;;;;5.28;4.68;;;10.70;69.40;;;;;;2104826;28;20224;-65
2023/06/17 02:18:44;;;;;;;5.90;4.67;;;10.70;69.20;;;;;;2095628;28;20233;-65
2023/06/17 02:19:46;;;;;;;6.47;4.77;;;10.70;69.10;;;;;;2096585;28;20232;-64
2023/06/17 02:20:46;;;;;;;5.53;4.28;;;10.70;69.00;;;;;;2105671;28;20236;-64
2023/06/17 02:21:47;;;;;;;7.40;5.03;;;10.70;69.50;;;;;;2104901;28;20218;-64
2023/06/17 02:22:49;;;;;;;5.70;4.33;;;10.70;69.20;;;;;;2104534;28;20242;-64
2023/06/17 02:23:51;;;;;;;5.18;4.47;;;10.70;69.40;;;;;;2096598;28;20219;-64
2023/06/17 02:24:53;;;;;;;5.10;4.50;;;10.70;70.60;;;;;;2104222;28;20225;-65
2023/06/17 02:25:55;;;;;;;4.47;3.93;;;10.60;69.40;;;;;;2104085;28;20238;-64
2023/06/17 02:26:57;;;;;;;5.60;4.47;;;10.70;69.50;;;;;;2096536;28;20212;-65
2023/06/17 02:28:04;;;;;;;6.97;4.60;;;10.70;69.60;;;;;;2089521;28;20294;-64
2023/06/17 02:29:05;;;;;;;6.45;4.72;;;10.70;69.80;;;;;;2098855;28;20267;-64
2023/06/17 02:30:09;;;;;;;5.75;4.30;;;10.60;69.70;;;;;;2097987;28;20189;-64
2023/06/17 02:31:10;;;;;;;6.15;4.80;;;10.60;69.90;;;;;;2104308;28;20188;-64
2023/06/17 02:32:11;;;;;;;5.70;4.57;;;10.70;69.80;;;;;;2104248;28;20662;-65
2023/06/17 02:33:12;;;;;;;5.67;4.90;;;10.70;70.70;;;;;;2104361;28;20186;-64
2023/06/17 02:34:13;;;;;;;6.47;5.05;;;10.60;69.60;;;;;;2102271;28;20688;-64
2023/06/17 02:35:15;;;;;;;5.83;3.93;;;10.60;69.80;;;;;;2104091;28;20249;-64
2023/06/17 02:36:16;;;;;;;7.50;4.60;;;10.60;69.90;;;;;;2104080;28;20189;-65
2023/06/17 02:37:16;;;;;;;8.77;4.73;;;10.50;70.10;;;;;;2094621;28;20670;-64
2023/06/17 02:38:17;;;;;;;6.07;4.43;;;10.60;70.30;;;;;;2085746;28;20213;-64
2023/06/17 02:39:18;;;;;;;5.53;4.63;;;10.60;70.20;;;;;;2104433;28;20227;-64
2023/06/17 02:40:18;;;;;;;5.10;4.60;;;10.50;70.10;;;;;;2103347;28;20247;-64
2023/06/17 02:41:20;;;;;;;7.10;5.43;;;10.60;70.00;;;;;;2095768;28;20360;-64
2023/06/17 02:42:21;;;;;;;7.30;4.63;;;10.60;70.00;;;;;;2088052;28;20734;-64
2023/06/17 02:43:22;;;;;;;6.03;4.95;;;10.60;70.00;;;;;;2091923;28;20576;-65
2023/06/17 02:44:22;;;;;;;6.30;4.55;;;10.60;69.90;;;;;;2104267;28;20235;-65
2023/06/17 02:45:23;;;;;;;6.40;4.60;;;10.50;70.40;;;;;;2100984;28;20752;-64
2023/06/17 02:46:27;;;;;;;6.60;4.90;;;10.50;71.00;;;;;;2102975;28;20257;-65
2023/06/17 02:47:28;;;;;;;5.38;4.72;;;10.40;71.20;;;;;;2102584;28;20301;-65
2023/06/17 02:48:29;;;;;;;7.07;4.38;;;10.30;71.80;;;;;;2110440;28;20221;-65
2023/06/17 02:49:29;;;;;;;6.80;4.47;;;10.30;72.50;;;;;;2110210;28;20674;-65
2023/06/17 02:50:30;;;;;;;6.03;4.47;;;10.20;72.50;;;;;;2102170;28;20882;-65
2023/06/17 02:51:32;;;;;;;6.23;5.10;;;10.40;72.50;;;;;;2104684;28;20219;-64
2023/06/17 02:52:34;;;;;;;6.05;4.50;;;10.40;72.20;;;;;;2104708;28;20226;-65
2023/06/17 02:53:34;;;;;;;5.53;4.38;;;10.40;72.20;;;;;;2096214;28;20224;-65
2023/06/17 02:54:35;;;;;;;6.17;4.70;;;10.40;72.10;;;;;;2093415;28;20253;-64
2023/06/17 02:55:36;;;;;;;6.47;4.53;;;10.40;71.80;;;;;;2100959;28;20227;-65
2023/06/17 02:56:37;;;;;;;6.27;4.53;;;10.50;71.90;;;;;;2105279;28;20276;-65
2023/06/17 02:57:38;;;;;;;7.57;5.17;;;10.50;71.80;;;;;;2095867;28;20235;-64
2023/06/17 02:58:38;;;;;;;6.57;4.73;;;10.50;71.70;;;;;;2095962;28;20236;-64
2023/06/17 02:59:39;;;;;;;6.20;4.90;;;10.60;72.60;;;;;;2096024;28;20219;-64
2023/06/17 03:00:40;;;;;;;6.13;4.23;;;10.60;71.50;;;;;;2104412;28;20263;-65
2023/06/17 03:01:43;;;;;;;7.35;4.45;;;10.60;71.50;;;;;;2101770;28;20779;-65
2023/06/17 03:02:43;;;;;;;6.60;4.70;;;10.50;71.50;;;;;;2101338;28;20237;-64
2023/06/17 03:03:44;;;;;;;4.68;4.10;;;10.50;71.50;;;;;;2104471;28;20222;-64
2023/06/17 03:04:48;;;;;;;5.27;4.50;;;10.50;71.40;;;;;;2104248;28;20688;-64
2023/06/17 03:05:49;;;;;;;6.20;4.50;;;10.60;71.30;;;;;;2101312;28;20385;-63
2023/06/17 03:06:50;;;;;;;5.23;4.43;;;10.60;71.40;;;;;;2102302;28;20217;-64
2023/06/17 03:07:51;;;;;;;6.38;5.28;;;10.60;71.60;;;;;;2097927;28;20229;-63
2023/06/17 03:08:53;;;;;;;7.47;4.90;;;10.50;71.90;;;;;;2102671;28;20253;-64
2023/06/17 03:09:54;;;;;;;5.40;4.20;;;10.40;72.80;;;;;;2105653;28;20230;-64
2023/06/17 03:10:55;;;;;;;6.37;4.43;;;10.30;73.20;;;;;;2105008;28;20237;-64
2023/06/17 03:11:58;;;;;;;6.23;4.70;;;10.20;73.40;;;;;;2104002;28;20697;-64
2023/06/17 03:13:00;;;;;;;6.25;4.50;;;10.20;73.90;;;;;;2102816;28;20292;-66
2023/06/17 03:14:01;;;;;;;5.03;4.50;;;10.30;73.70;;;;;;2104046;28;20231;-64
2023/06/17 03:15:03;;;;;;;6.22;4.88;;;10.30;73.40;;;;;;2103919;28;20210;-64
2023/06/17 03:16:05;;;;;;;6.55;4.22;;;10.40;73.10;;;;;;2103949;28;20231;-64
2023/06/17 03:17:07;;;;;;;5.28;4.30;;;10.40;72.90;;;;;;2100813;28;20808;-63
2023/06/17 03:18:08;;;;;;;8.57;5.18;;;10.40;73.10;;;;;;2103301;28;20214;-63
2023/06/17 03:19:09;;;;;;;7.03;4.85;;;10.40;72.80;;;;;;2104777;28;20190;-64
2023/06/17 03:20:10;;;;;;;6.33;5.03;;;10.50;72.70;;;;;;2103028;28;20223;-64
2023/06/17 03:21:11;;;;;;;5.88;4.72;;;10.50;72.60;;;;;;2104066;28;20200;-64
2023/06/17 03:22:12;;;;;;;5.83;4.70;;;10.50;72.80;;;;;;2087795;28;20179;-65
2023/06/17 03:23:13;;;;;;;11.35;5.00;;;10.50;72.70;;;;;;2104187;28;20972;-64
2023/06/17 03:24:13;;;;;;;8.70;4.87;;;10.40;72.70;;;;;;2102257;28;20281;-65
2023/06/17 03:25:15;;;;;;;8.93;4.80;;;10.40;72.80;;;;;;2101793;28;20198;-66
2023/06/17 03:26:17;;;;;;;6.93;4.97;;;10.40;73.00;;;;;;2102131;28;20291;-66
2023/06/17 03:27:20;;;;;;;7.00;4.57;;;10.50;73.00;;;;;;2101795;28;20229;-65
2023/06/17 03:28:21;;;;;;;7.07;4.78;;;10.40;74.20;;;;;;2104339;28;20256;-63
2023/06/17 03:29:21;;;;;;;5.23;4.60;;;10.50;73.10;;;;;;2104694;28;20238;-63
2023/06/17 03:30:25;;;;;;;6.57;4.80;;;10.50;73.10;;;;;;2101189;28;20231;-65
2023/06/17 03:31:25;;;;;;;7.45;4.85;;;10.50;74.20;;;;;;2105491;28;20245;-63
2023/06/17 03:32:26;;;;;;;7.23;4.47;;;10.50;73.00;;;;;;2105148;28;20226;-63
2023/06/17 03:33:27;;;;;;;7.63;4.35;;;10.40;73.30;;;;;;2102398;28;20241;-63
2023/06/17 03:34:28;;;;;;;5.57;4.30;;;10.40;73.10;;;;;;2109954;28;20279;-63
2023/06/17 03:35:29;;;;;;;5.40;4.40;;;10.40;73.90;;;;;;2109453;28;20256;-65
2023/06/17 03:36:31;;;;;;;6.47;4.47;;;10.40;73.80;;;;;;2104107;28;20226;-64
2023/06/17 03:37:31;;;;;;;6.53;4.60;;;10.40;73.70;;;;;;2103932;28;20230;-63
2023/06/17 03:38:34;;;;;;;6.90;4.73;;;10.40;73.60;;;;;;2104180;28;20290;-64
2023/06/17 03:39:34;;;;;;;5.22;4.70;;;10.40;73.40;;;;;;2103953;28;20698;-65
2023/06/17 03:40:37;;;;;;;5.43;4.93;;;10.40;73.40;;;;;;2105020;28;20232;-65
2023/06/17 03:41:37;;;;;;;5.28;4.57;;;10.50;73.50;;;;;;2101577;28;20239;-65
2023/06/17 03:42:38;;;;;;;6.00;4.90;;;10.50;73.40;;;;;;2107984;28;20226;-64
2023/06/17 03:43:40;;;;;;;7.50;5.00;;;10.50;73.00;;;;;;2092033;28;20250;-64
2023/06/17 03:44:41;;;;;;;7.28;4.85;;;10.50;73.20;;;;;;2092114;28;20235;-65
2023/06/17 03:45:42;;;;;;;6.47;4.93;;;10.50;72.90;;;;;;2092362;28;20265;-65
2023/06/17 03:46:42;;;;;;;5.78;4.97;;;10.50;72.80;;;;;;2100902;28;20716;-64
2023/06/17 03:47:43;;;;;;;6.33;4.53;;;10.50;72.60;;;;;;2103486;28;20252;-65
2023/06/17 03:48:44;;;;;;;6.17;4.67;;;10.50;73.00;;;;;;2094902;28;20696;-66
2023/06/17 03:49:45;;;;;;;5.63;4.70;;;10.50;73.40;;;;;;2097460;28;20230;-65
2023/06/17 03:50:46;;;;;;;7.20;5.00;;;10.50;73.80;;;;;;2097762;28;20233;-65
2023/06/17 03:51:47;;;;;;;5.22;4.43;;;10.50;73.60;;;;;;2113676;27;20252;-64
2023/06/17 03:52:48;;;;;;;7.00;4.95;;;10.50;73.30;;;;;;2104667;28;20253;-64
2023/06/17 03:53:48;;;;;;;5.50;4.80;;;10.50;73.40;;;;;;2103915;28;20268;-65
2023/06/17 03:54:50;;;;;;;6.17;4.70;;;10.50;73.70;;;;;;2098265;28;20708;-65
2023/06/17 03:55:51;;;;;;;5.97;4.82;;;10.60;73.40;;;;;;2105186;28;20261;-65
2023/06/17 03:56:52;;;;;;;6.80;3.97;;;10.60;73.30;;;;;;2116915;27;20261;-64
2023/06/17 03:57:53;;;;;;;6.50;4.90;;;10.60;73.20;;;;;;2106867;28;20319;-65
2023/06/17 03:58:54;;;;;;;5.60;4.63;;;10.60;73.00;;;;;;2104988;28;20234;-64
2023/06/17 03:59:55;;;;;;;7.57;4.80;;;10.70;73.30;;;;;;2097212;28;20322;-64
2023/06/17 04:00:56;;;;;;;6.10;4.63;;;10.60;73.30;;;;;;2096626;28;20292;-65
2023/06/17 04:01:58;;;;;;;5.07;4.55;;;10.60;73.30;;;;;;2104871;28;20221;-65
2023/06/17 04:02:59;;;;;;;5.13;4.55;;;10.70;73.20;;;;;;2105153;28;20228;-64
2023/06/17 04:04:00;;;;;;;5.53;4.23;;;10.70;73.10;;;;;;2105362;28;20263;-65
2023/06/17 04:05:02;;;;;;;7.73;4.40;;;10.60;73.20;;;;;;2105415;28;20190;-63
2023/06/17 04:06:03;;;;;;;6.35;4.55;;;10.60;73.10;;;;;;2106071;28;20211;-64
2023/06/17 04:07:04;;;;;;;5.00;4.43;;;10.70;73.10;;;;;;2096126;28;20699;-65
2023/06/17 04:08:06;;;;;;;6.13;4.70;;;10.70;73.10;;;;;;2087430;28;20208;-64
2023/06/17 04:09:07;;;;;;;5.18;4.65;;;10.70;72.70;;;;;;2095853;28;20185;-67
2023/06/17 04:10:08;;;;;;;5.90;4.73;;;10.80;72.60;;;;;;2104707;28;20717;-65
2023/06/17 04:11:09;;;;;;;6.53;4.97;;;10.80;72.50;;;;;;2106495;28;20191;-65
2023/06/17 04:12:10;;;;;;;6.17;5.40;;;10.80;73.00;;;;;;2106474;28;20584;-65
2023/06/17 04:13:10;;;;;;;4.93;4.40;;;10.90;73.30;;;;;;2106261;28;20213;-65
2023/06/17 04:14:11;;;;;;;6.07;4.97;;;10.90;73.00;;;;;;2097894;28;20309;-65
2023/06/17 04:15:12;;;;;;;6.33;5.07;;;10.90;72.40;;;;;;2096770;28;20178;-65
2023/06/17 04:16:15;;;;;;;6.20;4.75;;;10.90;72.20;;;;;;2105662;28;20194;-64
2023/06/17 04:17:17;;;;;;;5.18;4.68;;;10.90;72.10;;;;;;2106279;28;20180;-65
2023/06/17 04:18:18;;;;;;;6.97;5.32;;;10.80;72.70;;;;;;2102306;28;20350;-64
2023/06/17 04:19:19;;;;;;;5.60;4.77;;;11.00;72.70;;;;;;2103781;28;20595;-65
2023/06/17 04:20:20;;;;;;;7.70;5.30;;;10.90;72.40;;;;;;2103970;28;20232;-67
2023/06/17 04:21:22;;;;;;;5.50;4.57;;;10.90;72.10;;;;;;2094628;28;20230;-65
2023/06/17 04:22:23;;;;;;;5.32;4.53;;;10.90;72.40;;;;;;2093743;28;21033;-65
2023/06/17 04:23:25;;;;;;;7.93;4.80;;;10.90;72.50;;;;;;2113074;28;20224;-65
2023/06/17 04:24:27;;;;;;;6.05;4.65;;;11.00;72.20;;;;;;2106765;28;20286;-65
2023/06/17 04:25:32;;;;;;;6.15;4.72;;;11.00;72.10;;;;;;2102767;28;20689;-65
2023/06/17 04:26:33;;;;;;;5.10;4.50;;;11.00;72.20;;;;;;2103172;28;20615;-64
2023/06/17 04:27:34;;;;;;;5.20;4.50;;;11.10;71.80;;;;;;2103269;28;20223;-64
2023/06/17 04:28:35;;;;;;;5.65;4.32;;;11.20;71.90;;;;;;2102450;28;20244;-64
2023/06/17 04:29:36;;;;;;;6.50;4.57;;;11.10;72.10;;;;;;2104821;28;20218;-65
2023/06/17 04:30:37;;;;;;;4.82;4.20;;;11.20;72.30;;;;;;2106221;27;20252;-65
2023/06/17 04:31:40;;;;;;;5.03;4.32;;;11.10;72.10;;;;;;2101839;28;20316;-65
2023/06/17 04:32:42;;;;;;;6.50;4.88;;;11.10;71.80;;;;;;2105569;28;20241;-64
2023/06/17 04:33:43;;;;;;;5.68;4.78;;;11.20;72.00;;;;;;2105106;28;20254;-64
2023/06/17 04:34:47;;;;;;;5.97;4.63;;;11.30;71.60;;;;;;2105805;28;20219;-65
2023/06/17 04:35:49;;;;;;;6.55;4.90;;;11.30;71.30;;;;;;2104379;28;20259;-64
2023/06/17 04:36:56;;;;;;;4.68;4.15;;;11.30;72.50;;;;;;2102405;28;20222;-64
2023/06/17 04:37:57;;;;;;;7.35;4.70;;;11.30;71.30;;;;;;2104487;28;20308;-64
2023/06/17 04:38:58;;;;;;;6.17;4.57;;;11.30;71.10;;;;;;2105524;28;20259;-68
2023/06/17 04:40:00;;;;;;;5.40;4.63;;;11.40;71.40;;;;;;2106131;28;20198;-64
2023/06/17 04:41:01;;;;;;;6.35;5.13;;;11.40;71.60;;;;;;2105600;28;20191;-65
2023/06/17 04:42:04;;;;;;;7.57;4.95;;;11.30;71.80;;;;;;2096990;28;20190;-65
2023/06/17 04:43:06;;;;;;;5.57;4.50;;;11.40;71.70;;;;;;2092974;28;20203;-64
2023/06/17 04:44:08;;;;;;;6.53;4.93;;;11.50;71.20;;;;;;2105320;28;20182;-65
2023/06/17 04:45:10;;;;;;;4.78;4.13;;;11.50;71.20;;;;;;2106448;28;20211;-65
2023/06/17 04:46:12;;;;;;;7.70;4.95;;;11.50;70.80;;;;;;2105233;28;20194;-64
2023/06/17 04:47:13;;;;;;;6.25;4.95;;;11.60;70.60;;;;;;2089102;28;20183;-63
2023/06/17 04:48:14;;;;;;;6.70;5.10;;;11.60;70.30;;;;;;2097237;28;20203;-64
2023/06/17 04:49:15;;;;;;;7.30;5.45;;;11.60;69.90;;;;;;2105530;28;20178;-64
2023/06/17 04:50:16;;;;;;;5.50;4.88;;;11.70;70.20;;;;;;2105730;28;20200;-66
2023/06/17 04:51:17;;;;;;;7.70;5.13;;;11.70;71.10;;;;;;2105226;28;20244;-64
2023/06/17 04:52:19;;;;;;;7.20;5.95;;;11.70;70.90;;;;;;2105342;28;20238;-65
2023/06/17 04:53:21;;;;;;;7.18;5.95;;;11.60;71.30;;;;;;2105503;28;20223;-65
2023/06/17 04:54:24;;;;;;;7.80;5.50;;;11.70;71.10;;;;;;2104128;28;20234;-65
2023/06/17 04:55:25;;;;;;;6.28;5.55;;;11.70;69.60;;;;;;2104205;28;20646;-65
2023/06/17 04:56:26;;;;;;;6.13;5.43;;;11.70;69.40;;;;;;2104052;28;20306;-64
2023/06/17 04:57:29;;;;;;;6.53;5.93;;;11.70;69.40;;;;;;2096950;28;20223;-64
2023/06/17 04:58:30;;;;;;;7.25;5.80;;;11.70;69.50;;;;;;2102022;28;20221;-64
2023/06/17 04:59:30;;;;;;;5.67;5.07;;;11.70;70.80;;;;;;2102888;28;20303;-64
2023/06/17 05:00:31;;;;;;;5.97;5.33;;;11.80;69.90;;;;;;2101270;28;20759;-65
2023/06/17 05:01:32;;;;;;;6.83;5.33;;;11.80;69.70;;;;;;2109645;28;20218;-65
2023/06/17 05:02:34;;;;;;;6.75;5.13;;;11.90;70.00;;;;;;2103569;28;20287;-64
2023/06/17 05:03:36;;;;;;;6.43;4.93;;;11.90;71.30;;;;;;2097635;28;20651;-64
2023/06/17 05:04:36;;;;;;;6.87;4.73;;;11.90;70.00;;;;;;2098555;28;20253;-65
2023/06/17 05:05:37;;;;;;;7.53;5.83;;;12.00;70.00;;;;;;2098542;28;20586;-64
2023/06/17 05:06:38;;;;;;;8.70;5.40;;;12.00;70.50;;;;;;2099074;28;20234;-66
2023/06/17 05:07:39;;;;;;;7.03;5.45;;;12.00;69.60;;;;;;2106052;28;20250;-64
2023/06/17 05:08:39;;;;;;;6.07;4.97;;;12.00;69.20;;;;;;2106532;28;20594;-65
2023/06/17 05:09:40;;;;;;;5.83;4.80;;;12.00;68.70;;;;;;2102690;28;20227;-65
2023/06/17 05:10:41;;;;;;;6.57;5.87;;;12.00;69.40;;;;;;2096200;28;20241;-64
2023/06/17 05:11:42;;;;;;;6.93;5.70;;;12.00;70.40;;;;;;2102525;28;20223;-66
2023/06/17 05:12:44;;;;;;;6.25;5.30;;;12.10;69.90;;;;;;2097264;28;20226;-65
2023/06/17 05:13:46;;;;;;;7.43;5.40;;;12.00;69.60;;;;;;2093850;28;20273;-66
2023/06/17 05:14:48;;;;;;;7.60;5.60;;;12.20;69.50;;;;;;2096870;28;20227;-63
2023/06/17 05:15:49;;;;;;;7.40;5.35;;;12.20;69.70;;;;;;2103057;28;20232;-65
2023/06/17 05:16:49;;;;;;;6.27;5.53;;;12.20;69.50;;;;;;2103292;28;20222;-65
2023/06/17 05:17:50;;;;;;;8.27;7.10;;;12.20;70.00;;;;;;2106265;28;20649;-65
2023/06/17 05:18:51;;;;;;;6.97;5.43;;;12.30;69.80;;;;;;2106084;28;20250;-65
2023/06/17 05:19:52;;;;;;;5.80;5.00;;;12.30;70.00;;;;;;2097635;28;20240;-65
2023/06/17 05:20:52;;;;;;;7.30;5.80;;;12.40;69.70;;;;;;2102511;28;20302;-65
2023/06/17 05:21:53;;;;;;;6.27;4.93;;;12.40;69.50;;;;;;2100855;28;20256;-65
2023/06/17 05:22:54;;;;;;;6.63;5.20;;;12.40;68.30;;;;;;2097328;28;20638;-65